createdAt,value
2022-10-06T00:00:02.891Z,84.84
2022-10-06T00:02:29.440Z,84.56
2022-10-06T00:04:55.980Z,85.02
2022-10-06T00:07:22.490Z,84.82
2022-10-06T00:09:50.340Z,85.27
2022-10-06T00:12:16.815Z,85.16
2022-10-06T00:14:43.431Z,85.41
2022-10-06T00:17:09.904Z,86.11
2022-10-06T00:19:36.429Z,85.76
2022-10-06T00:22:02.937Z,85.78
2022-10-06T00:24:29.470Z,86.15
2022-10-06T00:26:57.419Z,86.43
2022-10-06T00:29:23.896Z,86.47
2022-10-06T00:31:50.415Z,86.88
2022-10-06T00:34:16.892Z,86.94
2022-10-06T00:36:43.396Z,86.73
2022-10-06T00:39:10.078Z,87.11
2022-10-06T00:41:36.572Z,87.27
2022-10-06T00:44:04.423Z,86.49
2022-10-06T00:46:36.530Z,86.22
2022-10-06T00:49:16.465Z,86.54
2022-10-06T00:51:48.054Z,86.33
2022-10-06T00:54:15.288Z,86.07
2022-10-06T00:56:42.140Z,85.98
2022-10-06T00:59:15.784Z,86.07
2022-10-06T01:01:49.384Z,86.03
2022-10-06T01:04:18.006Z,86.25
2022-10-06T01:06:48.145Z,86.50
2022-10-06T01:09:16.532Z,86.64
2022-10-06T01:11:44.588Z,86.87
2022-10-06T01:14:11.494Z,87.30
2022-10-06T01:16:42.842Z,88.02
2022-10-06T01:19:19.240Z,87.57
2022-10-06T01:21:49.396Z,87.56
2022-10-06T01:24:18.838Z,87.53
2022-10-06T01:26:49.495Z,87.61
2022-10-06T01:29:16.329Z,87.81
2022-10-06T01:31:43.300Z,87.97
2022-10-06T01:34:10.275Z,87.78
2022-10-06T01:36:36.777Z,87.98
2022-10-06T01:39:03.440Z,87.05
2022-10-06T01:41:31.307Z,86.07
2022-10-06T01:43:57.765Z,84.86
2022-10-06T01:46:24.425Z,83.61
2022-10-06T01:48:50.971Z,82.59
2022-10-06T01:51:17.834Z,81.91
2022-10-06T01:53:44.349Z,81.37
2022-10-06T01:56:11.166Z,80.36
2022-10-06T01:58:39.177Z,80.31
2022-10-06T02:01:06.360Z,79.98
2022-10-06T02:03:34.248Z,79.66
2022-10-06T02:06:00.881Z,79.27
2022-10-06T02:08:28.037Z,79.05
2022-10-06T02:10:54.787Z,78.81
2022-10-06T02:13:24.666Z,79.27
2022-10-06T02:15:55.590Z,79.73
2022-10-06T02:18:22.194Z,80.23
2022-10-06T02:20:48.844Z,80.69
2022-10-06T02:23:15.326Z,81.18
2022-10-06T02:25:41.972Z,81.42
2022-10-06T02:28:08.510Z,81.15
2022-10-06T02:30:35.485Z,81.91
2022-10-06T02:33:03.472Z,81.79
2022-10-06T02:35:29.983Z,82.10
2022-10-06T02:37:56.467Z,82.21
2022-10-06T02:40:23.063Z,82.23
2022-10-06T02:42:50.097Z,82.28
2022-10-06T02:45:16.952Z,82.31
2022-10-06T02:47:43.424Z,81.82
2022-10-06T02:50:11.283Z,82.21
2022-10-06T02:52:38.464Z,82.79
2022-10-06T02:55:06.375Z,81.60
2022-10-06T02:57:32.881Z,78.96
2022-10-06T02:59:59.520Z,77.30
2022-10-06T03:02:26.281Z,77.27
2022-10-06T03:04:52.876Z,76.72
2022-10-06T03:07:20.727Z,76.66
2022-10-06T03:09:47.207Z,75.96
2022-10-06T03:12:13.722Z,75.65
2022-10-06T03:14:40.270Z,74.87
2022-10-06T03:17:06.896Z,74.28
2022-10-06T03:19:33.554Z,73.89
2022-10-06T03:22:00.188Z,73.01
2022-10-06T03:24:28.074Z,72.50
2022-10-06T03:26:54.583Z,72.40
2022-10-06T03:29:21.123Z,71.66
2022-10-06T03:31:47.769Z,71.56
2022-10-06T03:34:14.299Z,72.62
2022-10-06T03:36:41.586Z,73.72
2022-10-06T03:39:08.336Z,74.53
2022-10-06T03:41:37.702Z,75.37
2022-10-06T03:44:04.998Z,75.86
2022-10-06T03:46:34.433Z,75.83
2022-10-06T03:49:01.186Z,75.81
2022-10-06T03:51:29.661Z,76.22
2022-10-06T03:53:56.746Z,75.57
2022-10-06T03:56:25.249Z,76.16
2022-10-06T03:58:54.635Z,75.70
2022-10-06T04:01:26.106Z,76.12
2022-10-06T04:03:54.183Z,76.47
2022-10-06T04:06:21.580Z,76.42
2022-10-06T04:08:49.801Z,76.47
2022-10-06T04:11:18.683Z,76.41
2022-10-06T04:13:45.191Z,77.06
2022-10-06T04:16:15.466Z,77.28
2022-10-06T04:18:43.378Z,77.92
2022-10-06T04:21:10.493Z,78.66
2022-10-06T04:23:37.138Z,79.04
2022-10-06T04:26:05.965Z,79.41
2022-10-06T04:28:33.585Z,79.97
2022-10-06T04:31:01.417Z,80.07
2022-10-06T04:33:29.606Z,80.40
2022-10-06T04:35:57.116Z,81.06
2022-10-06T04:38:24.016Z,81.34
2022-10-06T04:40:50.544Z,81.39
2022-10-06T04:43:17.239Z,82.02
2022-10-06T04:45:43.823Z,82.07
2022-10-06T04:48:10.370Z,82.34
2022-10-06T04:50:38.376Z,82.76
2022-10-06T04:53:04.883Z,83.12
2022-10-06T04:55:31.412Z,83.71
2022-10-06T04:57:57.901Z,83.91
2022-10-06T05:00:24.454Z,84.31
2022-10-06T05:02:52.592Z,84.81
2022-10-06T05:05:19.685Z,85.20
2022-10-06T05:07:47.625Z,85.78
2022-10-06T05:10:14.252Z,86.38
2022-10-06T05:12:40.788Z,86.60
2022-10-06T05:15:08.708Z,87.13
2022-10-06T05:17:35.220Z,87.35
2022-10-06T05:20:01.879Z,87.36
2022-10-06T05:22:28.389Z,87.62
2022-10-06T05:24:56.283Z,87.80
2022-10-06T05:27:22.795Z,87.73
2022-10-06T05:29:49.322Z,88.11
2022-10-06T05:32:15.906Z,88.61
2022-10-06T05:34:42.419Z,89.18
2022-10-06T05:37:08.916Z,89.27
2022-10-06T05:39:35.438Z,89.66
2022-10-06T05:42:03.609Z,89.63
2022-10-06T05:44:30.097Z,89.83
2022-10-06T05:46:56.611Z,89.01
2022-10-06T05:49:23.225Z,88.22
2022-10-06T05:51:49.770Z,88.77
2022-10-06T05:54:16.320Z,89.28
2022-10-06T05:56:42.855Z,89.73
2022-10-06T05:59:10.973Z,89.90
2022-10-06T06:01:39.522Z,89.40
2022-10-06T06:04:07.776Z,89.11
2022-10-06T06:06:37.757Z,88.75
2022-10-06T06:09:06.384Z,89.82
2022-10-06T06:11:34.563Z,90.44
2022-10-06T06:14:04.861Z,90.42
2022-10-06T06:16:33.468Z,90.72
2022-10-06T06:19:00.858Z,91.01
2022-10-06T06:21:28.328Z,90.78
2022-10-06T06:23:55.042Z,90.67
2022-10-06T06:26:23.740Z,90.45
2022-10-06T06:28:50.941Z,90.46
2022-10-06T06:31:20.307Z,90.41
2022-10-06T06:33:51.290Z,90.17
2022-10-06T06:36:20.712Z,90.29
2022-10-06T06:38:48.938Z,89.80
2022-10-06T06:41:17.002Z,89.32
2022-10-06T06:43:43.898Z,89.63
2022-10-06T06:46:10.773Z,89.72
2022-10-06T06:48:37.543Z,89.75
2022-10-06T06:51:05.741Z,89.78
2022-10-06T06:53:32.473Z,89.94
2022-10-06T06:55:59.261Z,90.20
2022-10-06T06:58:26.304Z,89.74
2022-10-06T07:00:53.354Z,89.68
2022-10-06T07:03:38.550Z,89.40
2022-10-06T07:06:12.138Z,88.44
2022-10-06T07:08:40.500Z,88.17
2022-10-06T07:11:12.084Z,87.93
2022-10-06T07:13:38.899Z,87.70
2022-10-06T07:16:05.977Z,87.64
2022-10-06T07:18:32.939Z,88.18
2022-10-06T07:20:59.721Z,86.53
2022-10-06T07:23:27.581Z,86.07
2022-10-06T07:25:54.103Z,86.23
2022-10-06T07:28:20.646Z,84.54
2022-10-06T07:30:47.223Z,83.64
2022-10-06T07:33:14.516Z,83.37
2022-10-06T07:35:41.071Z,84.40
2022-10-06T07:38:07.549Z,82.26
2022-10-06T07:40:35.808Z,80.60
2022-10-06T07:43:02.339Z,80.76
2022-10-06T07:45:29.769Z,80.25
2022-10-06T07:47:57.987Z,79.98
2022-10-06T07:50:24.486Z,79.34
2022-10-06T07:52:51.012Z,80.20
2022-10-06T07:55:17.488Z,78.64
2022-10-06T07:57:46.405Z,78.90
2022-10-06T08:00:13.563Z,78.27
2022-10-06T08:02:40.254Z,77.60
2022-10-06T08:05:07.763Z,77.96
2022-10-06T08:07:34.765Z,75.47
2022-10-06T08:10:01.450Z,76.19
2022-10-06T08:12:28.050Z,75.20
2022-10-06T08:14:56.396Z,74.39
2022-10-06T08:17:23.376Z,72.88
2022-10-06T08:19:49.867Z,73.08
2022-10-06T08:22:16.424Z,72.98
2022-10-06T08:25:04.639Z,73.48
2022-10-06T08:27:29.699Z,72.12
2022-10-06T08:29:57.856Z,71.90
2022-10-06T08:32:24.655Z,71.20
2022-10-06T08:34:51.538Z,70.97
2022-10-06T08:37:20.497Z,69.74
2022-10-06T08:39:47.178Z,70.69
2022-10-06T08:42:18.064Z,70.92
2022-10-06T08:44:49.298Z,69.19
2022-10-06T08:47:19.678Z,67.89
2022-10-06T08:49:47.811Z,67.64
2022-10-06T08:52:40.952Z,68.68
2022-10-06T08:55:20.930Z,68.57
2022-10-06T08:57:58.334Z,67.17
2022-10-06T09:00:24.943Z,66.97
2022-10-06T09:02:55.694Z,66.59
2022-10-06T09:05:22.496Z,65.99
2022-10-06T09:07:58.877Z,66.08
2022-10-06T09:10:41.510Z,65.45
2022-10-06T09:13:17.305Z,66.26
2022-10-06T09:15:50.488Z,64.69
2022-10-06T09:18:23.037Z,63.05
2022-10-06T09:20:53.683Z,62.03
2022-10-06T09:23:20.484Z,63.31
2022-10-06T09:25:47.313Z,61.12
2022-10-06T09:28:15.170Z,61.26
2022-10-06T09:30:42.268Z,60.29
2022-10-06T09:33:17.878Z,61.97
2022-10-06T09:36:04.949Z,60.83
2022-10-06T09:38:46.286Z,57.80
2022-10-06T09:41:13.357Z,57.49
2022-10-06T09:43:41.355Z,57.31
2022-10-06T09:46:26.589Z,58.78
2022-10-06T09:49:06.531Z,56.59
2022-10-06T09:51:34.410Z,57.25
2022-10-06T09:54:09.268Z,56.41
2022-10-06T09:56:40.268Z,56.87
2022-10-06T09:59:20.104Z,55.03
2022-10-06T10:01:51.489Z,55.29
2022-10-06T10:04:23.307Z,53.91
2022-10-06T10:06:51.509Z,51.03
2022-10-06T10:09:26.109Z,50.91
2022-10-06T10:12:13.702Z,51.37
2022-10-06T10:14:40.455Z,52.61
2022-10-06T10:17:12.657Z,52.94
2022-10-06T10:19:39.406Z,52.82
2022-10-06T10:22:18.708Z,52.58
2022-10-06T10:24:57.702Z,51.59
2022-10-06T10:27:31.738Z,50.85
2022-10-06T10:30:05.313Z,52.00
2022-10-06T10:32:44.911Z,52.47
2022-10-06T10:35:23.032Z,52.09
2022-10-06T10:37:55.713Z,50.41
2022-10-06T10:40:34.388Z,51.17
2022-10-06T10:43:10.977Z,50.46
2022-10-06T10:45:42.685Z,48.96
2022-10-06T10:48:15.349Z,50.31
2022-10-06T10:50:58.895Z,49.23
2022-10-06T10:53:36.551Z,50.00
2022-10-06T10:56:08.810Z,50.07
2022-10-06T10:58:37.346Z,51.79
2022-10-06T11:01:14.697Z,50.62
2022-10-06T11:03:41.472Z,50.66
2022-10-06T11:06:22.587Z,49.38
2022-10-06T11:08:57.895Z,48.75
2022-10-06T11:11:41.659Z,49.41
2022-10-06T11:14:18.580Z,48.03
2022-10-06T11:16:51.234Z,47.81
2022-10-06T11:19:29.907Z,47.48
2022-10-06T11:22:02.942Z,46.63
2022-10-06T11:24:44.994Z,47.80
2022-10-06T11:27:25.287Z,49.84
2022-10-06T11:30:02.252Z,50.41
2022-10-06T11:32:41.888Z,48.07
2022-10-06T11:35:18.920Z,49.17
2022-10-06T11:37:50.500Z,45.76
2022-10-06T11:40:40.058Z,46.78
2022-10-06T11:43:14.836Z,45.04
2022-10-06T11:45:48.447Z,45.50
2022-10-06T11:48:24.944Z,45.54
2022-10-06T11:50:51.570Z,44.33
2022-10-06T11:53:37.282Z,43.37
2022-10-06T11:56:37.912Z,44.17
2022-10-06T11:59:24.671Z,43.32
2022-10-06T12:01:53.570Z,44.41
2022-10-06T12:04:24.322Z,44.53
2022-10-06T12:06:54.012Z,43.43
2022-10-06T12:09:53.060Z,43.83
2022-10-06T12:12:43.946Z,44.22
2022-10-06T12:18:43.115Z,42.49
2022-10-06T12:21:19.997Z,44.22
2022-10-06T12:23:58.803Z,43.43
2022-10-06T12:26:39.772Z,42.67
2022-10-06T12:29:29.783Z,42.54
2022-10-06T12:32:04.738Z,42.32
2022-10-06T12:34:52.147Z,42.72
2022-10-06T12:37:44.344Z,43.18
2022-10-06T12:40:56.646Z,41.92
2022-10-06T12:43:34.282Z,42.46
2022-10-06T12:46:04.712Z,41.74
2022-10-06T12:48:39.735Z,41.91
2022-10-06T12:51:17.607Z,41.87
2022-10-06T12:53:52.025Z,42.95
2022-10-06T12:56:27.703Z,42.09
2022-10-06T12:58:54.741Z,42.22
2022-10-06T13:01:24.002Z,43.40
2022-10-06T13:03:52.165Z,43.67
2022-10-06T13:06:21.577Z,42.29
2022-10-06T13:09:04.101Z,43.01
2022-10-06T13:11:30.700Z,42.74
2022-10-06T13:14:06.672Z,41.54
2022-10-06T13:16:36.667Z,42.03
2022-10-06T13:19:03.278Z,41.88
2022-10-06T13:21:30.351Z,42.48
2022-10-06T13:23:57.283Z,41.19
2022-10-06T13:26:27.025Z,42.73
2022-10-06T13:28:54.931Z,42.00
2022-10-06T13:31:23.428Z,42.72
2022-10-06T13:33:55.679Z,41.63
2022-10-06T13:36:22.792Z,41.69
2022-10-06T13:38:49.945Z,40.43
2022-10-06T13:41:22.129Z,41.43
2022-10-06T13:43:51.411Z,41.06
2022-10-06T13:46:21.542Z,42.74
2022-10-06T13:48:54.933Z,41.98
2022-10-06T13:51:23.938Z,43.15
2022-10-06T13:53:51.229Z,43.27
2022-10-06T13:56:36.221Z,42.96
2022-10-06T13:59:28.740Z,42.47
2022-10-06T14:01:55.843Z,42.08
2022-10-06T14:04:23.883Z,42.04
2022-10-06T14:06:53.499Z,43.98
2022-10-06T14:09:24.280Z,42.26
2022-10-06T14:11:52.548Z,42.05
2022-10-06T14:14:19.521Z,42.56
2022-10-06T14:16:48.374Z,42.94
2022-10-06T14:19:34.741Z,42.29
2022-10-06T14:22:02.317Z,43.41
2022-10-06T14:24:29.319Z,41.63
2022-10-06T14:27:01.696Z,42.83
2022-10-06T14:29:28.225Z,43.31
2022-10-06T14:31:54.746Z,43.51
2022-10-06T14:34:21.914Z,42.23
2022-10-06T14:36:51.156Z,43.20
2022-10-06T14:39:17.985Z,43.93
2022-10-06T14:41:44.587Z,43.59
2022-10-06T14:44:12.192Z,42.12
2022-10-06T14:46:39.929Z,41.61
2022-10-06T14:49:07.169Z,41.11
2022-10-06T14:51:36.574Z,43.01
2022-10-06T14:54:06.101Z,43.94
2022-10-06T14:56:34.667Z,44.07
2022-10-06T14:59:04.242Z,44.09
2022-10-06T15:01:31.911Z,43.29
2022-10-06T15:04:00.000Z,42.66
2022-10-06T15:06:26.986Z,43.05
2022-10-06T15:08:56.288Z,44.42
2022-10-06T15:11:25.619Z,45.33
2022-10-06T15:13:52.200Z,42.94
2022-10-06T15:16:18.725Z,43.71
2022-10-06T15:18:45.245Z,45.10
2022-10-06T15:21:11.758Z,44.56
2022-10-06T15:23:38.928Z,44.48
2022-10-06T15:26:06.044Z,45.30
2022-10-06T15:28:33.883Z,45.62
2022-10-06T15:31:00.441Z,45.75
2022-10-06T15:33:27.675Z,45.68
2022-10-06T15:36:13.936Z,46.65
2022-10-06T15:38:40.470Z,47.01
2022-10-06T15:41:06.950Z,46.42
2022-10-06T15:43:34.889Z,46.76
2022-10-06T15:46:01.365Z,47.13
2022-10-06T15:48:27.867Z,48.24
2022-10-06T15:50:54.389Z,49.09
2022-10-06T15:53:20.905Z,48.05
2022-10-06T15:55:47.428Z,49.71
2022-10-06T15:58:14.028Z,49.97
2022-10-06T16:00:42.038Z,50.56
2022-10-06T16:03:08.660Z,50.07
2022-10-06T16:05:35.212Z,50.01
2022-10-06T16:08:01.696Z,50.51
2022-10-06T16:10:28.288Z,50.89
2022-10-06T16:12:54.781Z,50.62
2022-10-06T16:15:21.433Z,51.85
2022-10-06T16:17:49.277Z,52.54
2022-10-06T16:20:15.982Z,52.75
2022-10-06T16:22:42.574Z,53.81
2022-10-06T16:25:09.483Z,57.13
2022-10-06T16:27:35.962Z,56.02
2022-10-06T16:30:02.643Z,58.17
2022-10-06T16:32:29.131Z,60.91
2022-10-06T16:34:57.025Z,59.91
2022-10-06T16:37:23.532Z,62.34
2022-10-06T16:39:50.029Z,61.97
2022-10-06T16:42:16.652Z,61.26
2022-10-06T16:44:43.160Z,61.45
2022-10-06T16:47:09.904Z,61.62
2022-10-06T16:49:36.685Z,64.25
2022-10-06T16:52:04.599Z,63.49
2022-10-06T16:54:31.134Z,62.70
2022-10-06T16:56:57.769Z,65.71
2022-10-06T16:59:24.654Z,65.78
2022-10-06T17:01:51.200Z,67.19
2022-10-06T17:04:19.394Z,68.03
2022-10-06T17:06:47.516Z,69.11
2022-10-06T17:09:18.204Z,70.00
2022-10-06T17:11:46.898Z,70.12
2022-10-06T17:14:13.624Z,70.89
2022-10-06T17:16:42.803Z,71.36
2022-10-06T17:19:10.804Z,71.25
2022-10-06T17:21:47.493Z,71.62
2022-10-06T17:24:16.925Z,72.56
2022-10-06T17:26:44.635Z,72.82
2022-10-06T17:29:13.472Z,73.68
2022-10-06T17:31:41.834Z,73.08
2022-10-06T17:34:10.724Z,73.59
2022-10-06T17:36:38.301Z,72.87
2022-10-06T17:39:06.004Z,73.90
2022-10-06T17:41:36.031Z,72.63
2022-10-06T17:44:04.969Z,74.44
2022-10-06T17:46:33.946Z,75.04
2022-10-06T17:49:03.009Z,76.17
2022-10-06T17:51:29.516Z,77.22
2022-10-06T17:53:57.811Z,78.43
2022-10-06T17:56:25.609Z,79.45
2022-10-06T17:58:54.778Z,80.02
2022-10-06T18:01:23.311Z,79.88
2022-10-06T18:03:50.295Z,79.33
2022-10-06T18:06:17.758Z,80.09
2022-10-06T18:08:45.692Z,79.47
2022-10-06T18:11:14.175Z,81.05
2022-10-06T18:13:40.772Z,79.35
2022-10-06T18:16:14.812Z,80.53
2022-10-06T18:18:44.217Z,80.33
2022-10-06T18:21:10.936Z,81.02
2022-10-06T18:23:37.425Z,81.10
2022-10-06T18:26:04.093Z,81.75
2022-10-06T18:28:30.642Z,82.09
2022-10-06T18:30:57.205Z,82.52
2022-10-06T18:36:14.766Z,82.79
2022-10-06T18:38:43.448Z,83.13
2022-10-06T18:41:12.826Z,83.54
2022-10-06T18:43:39.464Z,84.31
2022-10-06T18:46:07.656Z,84.58
2022-10-06T18:48:37.278Z,85.21
2022-10-06T18:51:04.142Z,84.89
2022-10-06T18:53:30.651Z,84.68
2022-10-06T18:55:57.292Z,85.20
2022-10-06T18:58:23.785Z,85.12
2022-10-06T19:00:50.353Z,85.80
2022-10-06T19:03:16.840Z,86.37
2022-10-06T19:05:52.287Z,86.18
2022-10-06T19:08:18.784Z,86.86
2022-10-06T19:10:45.300Z,87.56
2022-10-06T19:13:11.810Z,87.46
2022-10-06T19:15:38.488Z,87.56
2022-10-06T19:18:05.312Z,87.59
2022-10-06T19:20:31.808Z,88.05
2022-10-06T19:22:59.671Z,88.26
2022-10-06T19:25:26.287Z,89.19
2022-10-06T19:27:52.849Z,89.03
2022-10-06T19:30:19.399Z,88.83
2022-10-06T19:32:45.888Z,89.55
2022-10-06T19:35:12.421Z,89.90
2022-10-06T19:37:39.304Z,90.44
2022-10-06T19:40:07.431Z,90.80
2022-10-06T19:42:33.940Z,90.08
2022-10-06T19:45:00.604Z,91.25
2022-10-06T19:47:27.884Z,91.10
2022-10-06T19:49:57.854Z,91.28
2022-10-06T19:52:25.597Z,91.46
2022-10-06T19:54:52.161Z,91.98
2022-10-06T19:57:20.146Z,92.36
2022-10-06T19:59:46.647Z,91.81
2022-10-06T20:02:13.436Z,92.19
2022-10-06T20:04:40.082Z,92.35
2022-10-06T20:07:07.720Z,92.43
2022-10-06T20:09:34.370Z,92.13
2022-10-06T20:12:01.375Z,92.58
2022-10-06T20:14:29.367Z,91.98
2022-10-06T20:16:56.546Z,92.51
2022-10-06T20:19:23.595Z,93.61
2022-10-06T20:21:50.392Z,94.34
2022-10-06T20:24:19.236Z,93.77
2022-10-06T20:26:46.640Z,94.02
2022-10-06T20:29:14.753Z,94.23
2022-10-06T20:31:44.845Z,94.52
2022-10-06T20:34:13.667Z,94.91
2022-10-06T20:36:40.424Z,94.89
2022-10-06T20:39:11.167Z,94.41
2022-10-06T20:41:38.588Z,93.69
2022-10-06T20:44:05.384Z,94.66
2022-10-06T20:46:34.426Z,95.04
2022-10-06T20:49:04.976Z,95.17
2022-10-06T20:51:32.661Z,95.52
2022-10-06T20:53:59.724Z,94.97
2022-10-06T20:56:26.276Z,94.97
2022-10-06T20:58:53.216Z,94.59
2022-10-06T21:01:21.645Z,95.14
2022-10-06T21:03:50.719Z,94.97
2022-10-06T21:06:18.920Z,95.42
2022-10-06T21:08:46.478Z,96.16
2022-10-06T21:11:14.188Z,96.48
2022-10-06T21:13:41.203Z,96.16
2022-10-06T21:16:07.872Z,95.88
2022-10-06T21:18:34.497Z,96.50
2022-10-06T21:21:02.283Z,96.81
2022-10-06T21:23:35.006Z,96.61
2022-10-06T21:26:01.696Z,96.36
2022-10-06T21:28:28.395Z,97.06
2022-10-06T21:31:00.524Z,96.79
2022-10-06T21:33:27.066Z,96.98
2022-10-06T21:36:00.294Z,97.77
2022-10-06T21:38:27.567Z,97.46
2022-10-06T21:40:56.064Z,97.12
2022-10-06T21:43:23.119Z,97.34
2022-10-06T21:46:00.829Z,97.79
2022-10-06T21:48:36.179Z,97.57
2022-10-06T21:51:02.652Z,97.34
2022-10-06T21:53:31.487Z,98.28
2022-10-06T21:55:59.307Z,97.75
2022-10-06T21:58:25.961Z,98.23
2022-10-06T22:00:57.302Z,97.56
2022-10-06T22:03:24.729Z,97.79
2022-10-06T22:05:51.230Z,98.34
2022-10-06T22:08:17.773Z,98.25
2022-10-06T22:10:44.288Z,98.48
2022-10-06T22:13:12.186Z,98.99
2022-10-06T22:15:38.848Z,99.49
2022-10-06T22:18:05.463Z,98.61
2022-10-06T22:20:31.958Z,99.68
2022-10-06T22:23:02.552Z,99.44
2022-10-06T22:25:31.163Z,99.20
2022-10-06T22:27:57.764Z,99.20
2022-10-06T22:30:25.706Z,99.03
2022-10-06T22:32:52.211Z,97.93
2022-10-06T22:35:18.686Z,98.92
2022-10-06T22:37:45.670Z,98.61
2022-10-06T22:40:12.690Z,98.07
2022-10-06T22:42:39.153Z,99.15
2022-10-06T22:45:06.577Z,99.33
2022-10-06T22:47:34.542Z,98.64
2022-10-06T22:50:01.057Z,98.53
2022-10-06T22:52:27.547Z,98.30
2022-10-06T22:54:54.034Z,99.54
2022-10-06T22:57:20.525Z,99.05
2022-10-06T22:59:47.019Z,98.75
2022-10-06T23:02:13.525Z,98.85
2022-10-06T23:04:41.394Z,99.48
2022-10-06T23:07:07.983Z,99.11
2022-10-06T23:09:34.500Z,99.72
2022-10-06T23:12:01.116Z,100.00
2022-10-06T23:14:27.600Z,100.00
2022-10-06T23:16:54.151Z,100.00
2022-10-06T23:19:20.665Z,100.00
2022-10-06T23:21:48.512Z,100.00
2022-10-06T23:24:15.100Z,100.00
2022-10-06T23:26:41.752Z,100.00
2022-10-06T23:29:11.831Z,99.12
2022-10-06T23:31:38.375Z,99.07
2022-10-06T23:34:04.948Z,100.00
2022-10-06T23:36:31.485Z,100.00
2022-10-06T23:38:59.520Z,100.00
2022-10-06T23:41:26.137Z,100.00
2022-10-06T23:43:52.627Z,100.00
2022-10-06T23:46:19.190Z,100.00
2022-10-06T23:48:45.821Z,100.00
2022-10-06T23:51:14.192Z,100.00
2022-10-06T23:53:41.240Z,100.00
2022-10-06T23:56:09.656Z,100.00
2022-10-06T23:58:36.614Z,100.00
